createdAt,value
2022-09-23T00:01:08.613Z,13.24
2022-09-23T00:03:54.552Z,13.23
2022-09-23T00:06:41.657Z,13.16
2022-09-23T00:09:27.235Z,13.15
2022-09-23T00:12:13.615Z,12.92
2022-09-23T00:14:59.070Z,13.01
2022-09-23T00:17:45.524Z,13.14
2022-09-23T00:20:32.111Z,13.07
2022-09-23T00:23:18.160Z,13.00
2022-09-23T00:26:05.842Z,12.96
2022-09-23T00:28:52.007Z,13.06
2022-09-23T00:31:37.752Z,12.96
2022-09-23T00:34:23.688Z,12.80
2022-09-23T00:37:09.076Z,13.02
2022-09-23T00:39:55.644Z,12.80
2022-09-23T00:42:49.495Z,12.97
2022-09-23T00:45:35.572Z,12.88
2022-09-23T00:48:21.375Z,13.07
2022-09-23T00:51:09.937Z,12.91
2022-09-23T00:53:55.722Z,13.04
2022-09-23T00:56:41.720Z,12.98
2022-09-23T00:59:29.037Z,13.06
2022-09-23T01:02:15.616Z,13.08
2022-09-23T01:05:03.977Z,13.09
2022-09-23T01:07:50.239Z,12.91
2022-09-23T01:10:41.731Z,13.05
2022-09-23T01:14:09.549Z,12.98
2022-09-23T01:17:27.997Z,12.97
2022-09-23T01:20:19.854Z,13.00
2022-09-23T01:23:30.394Z,12.99
2022-09-23T01:26:41.213Z,12.98
2022-09-23T01:29:48.520Z,12.92
2022-09-23T01:32:42.362Z,12.76
2022-09-23T01:35:46.039Z,12.93
2022-09-23T01:38:53.117Z,12.94
2022-09-23T01:42:01.394Z,12.80
2022-09-23T01:44:56.317Z,12.73
2022-09-23T01:48:10.432Z,12.83
2022-09-23T01:51:02.472Z,12.77
2022-09-23T01:53:53.616Z,12.83
2022-09-23T01:56:44.248Z,12.85
2022-09-23T01:59:36.249Z,12.75
2022-09-23T02:02:38.099Z,12.61
2022-09-23T02:05:33.582Z,12.73
2022-09-23T02:08:27.467Z,12.69
2022-09-23T02:11:15.393Z,12.59
2022-09-23T02:14:06.370Z,12.46
2022-09-23T02:16:52.517Z,12.47
2022-09-23T02:19:48.318Z,12.69
2022-09-23T02:22:42.359Z,12.68
2022-09-23T02:26:00.828Z,12.62
2022-09-23T02:28:56.374Z,12.51
2022-09-23T02:31:45.763Z,12.64
2022-09-23T02:34:40.279Z,12.71
2022-09-23T02:37:29.066Z,12.71
2022-09-23T02:40:16.987Z,12.74
2022-09-23T02:43:10.427Z,12.75
2022-09-23T02:45:56.310Z,12.54
2022-09-23T02:49:04.512Z,12.71
2022-09-23T02:51:50.906Z,12.43
2022-09-23T02:54:37.252Z,12.61
2022-09-23T02:57:23.098Z,12.63
2022-09-23T03:00:09.609Z,12.74
2022-09-23T03:03:06.205Z,12.54
2022-09-23T03:05:57.929Z,12.52
2022-09-23T03:08:50.442Z,12.55
2022-09-23T03:11:39.859Z,12.56
2022-09-23T03:14:41.226Z,12.53
2022-09-23T03:17:33.323Z,12.59
2022-09-23T03:20:32.250Z,12.62
2022-09-23T03:23:27.810Z,12.60
2022-09-23T03:26:31.425Z,12.59
2022-09-23T03:29:19.322Z,12.61
2022-09-23T03:32:08.276Z,12.44
2022-09-23T03:35:00.297Z,12.36
2022-09-23T03:38:12.064Z,12.50
2022-09-23T03:40:58.452Z,12.53
2022-09-23T03:43:45.206Z,12.31
2022-09-23T03:46:34.614Z,12.44
2022-09-23T03:49:27.335Z,12.46
2022-09-23T03:52:13.173Z,12.31
2022-09-23T03:54:58.516Z,12.42
2022-09-23T03:57:45.179Z,12.44
2022-09-23T04:00:30.710Z,12.15
2022-09-23T04:03:19.149Z,12.28
2022-09-23T04:06:05.203Z,12.29
2022-09-23T04:08:51.095Z,12.44
2022-09-23T04:11:36.598Z,12.37
2022-09-23T04:14:22.901Z,12.26
2022-09-23T04:17:08.583Z,12.41
2022-09-23T04:19:54.597Z,12.28
2022-09-23T04:22:40.189Z,12.15
2022-09-23T04:25:26.293Z,12.15
2022-09-23T04:28:11.746Z,12.06
2022-09-23T04:30:57.928Z,12.36
2022-09-23T04:33:43.855Z,12.19
2022-09-23T04:36:30.417Z,12.21
2022-09-23T04:39:16.727Z,12.13
2022-09-23T04:42:04.150Z,12.33
2022-09-23T04:44:49.740Z,12.09
2022-09-23T04:47:35.370Z,12.36
2022-09-23T04:50:21.109Z,12.25
2022-09-23T04:53:06.882Z,12.20
2022-09-23T04:55:52.805Z,12.15
2022-09-23T04:58:40.082Z,12.34
2022-09-23T05:01:27.573Z,12.22
2022-09-23T05:04:14.325Z,12.19
2022-09-23T05:07:03.281Z,12.37
2022-09-23T05:09:49.765Z,12.23
2022-09-23T05:12:35.414Z,12.37
2022-09-23T05:15:21.681Z,12.17
2022-09-23T05:18:07.740Z,12.32
2022-09-23T05:20:55.506Z,12.41
2022-09-23T05:23:42.422Z,12.48
2022-09-23T05:26:30.768Z,12.30
2022-09-23T05:29:21.561Z,12.50
2022-09-23T05:32:28.875Z,12.53
2022-09-23T05:35:15.285Z,12.42
2022-09-23T05:38:01.700Z,12.39
2022-09-23T05:40:48.337Z,12.52
2022-09-23T05:43:35.115Z,12.55
2022-09-23T05:46:23.666Z,12.61
2022-09-23T05:49:10.457Z,12.38
2022-09-23T05:51:56.776Z,12.54
2022-09-23T05:54:42.519Z,12.44
2022-09-23T05:57:28.545Z,12.72
2022-09-23T06:00:15.479Z,12.54
2022-09-23T06:03:01.121Z,12.67
2022-09-23T06:05:47.390Z,12.64
2022-09-23T06:08:34.603Z,12.68
2022-09-23T06:11:21.557Z,12.80
2022-09-23T06:14:09.607Z,12.91
2022-09-23T06:16:56.256Z,13.06
2022-09-23T06:19:41.989Z,13.25
2022-09-23T06:22:27.861Z,13.22
2022-09-23T06:25:13.301Z,13.43
2022-09-23T06:27:59.632Z,13.51
2022-09-23T06:30:44.993Z,13.32
2022-09-23T06:33:36.802Z,13.53
2022-09-23T06:36:39.049Z,13.71
2022-09-23T06:39:27.633Z,13.81
2022-09-23T06:42:13.511Z,13.79
2022-09-23T06:44:59.417Z,14.06
2022-09-23T06:47:45.018Z,13.99
2022-09-23T06:50:30.995Z,14.03
2022-09-23T06:53:17.170Z,14.04
2022-09-23T06:56:08.177Z,14.24
2022-09-23T06:58:54.885Z,14.53
2022-09-23T07:01:41.646Z,14.51
2022-09-23T07:04:29.463Z,14.53
2022-09-23T07:07:16.426Z,14.63
2022-09-23T07:10:01.918Z,14.71
2022-09-23T07:12:47.950Z,14.64
2022-09-23T07:15:33.904Z,14.69
2022-09-23T07:18:23.544Z,14.90
2022-09-23T07:21:15.243Z,14.70
2022-09-23T07:24:01.838Z,14.81
2022-09-23T07:26:47.297Z,14.74
2022-09-23T07:29:43.989Z,14.66
2022-09-23T07:32:43.371Z,14.72
2022-09-23T07:35:33.464Z,14.76
2022-09-23T07:38:19.418Z,14.82
2022-09-23T07:41:10.313Z,14.84
2022-09-23T07:43:59.017Z,14.97
2022-09-23T07:46:44.955Z,15.12
2022-09-23T07:49:30.511Z,14.85
2022-09-23T07:52:17.066Z,14.97
2022-09-23T07:55:03.948Z,14.98
2022-09-23T07:57:50.111Z,15.02
2022-09-23T08:00:36.174Z,14.93
2022-09-23T08:03:22.027Z,14.62
2022-09-23T08:06:10.797Z,14.49
2022-09-23T08:09:01.096Z,14.19
2022-09-23T08:11:47.441Z,14.20
2022-09-23T08:14:33.421Z,14.23
2022-09-23T08:17:19.389Z,14.08
2022-09-23T08:20:06.049Z,14.37
2022-09-23T08:22:51.625Z,14.27
2022-09-23T08:25:37.242Z,14.23
2022-09-23T08:28:22.924Z,14.41
2022-09-23T08:31:09.124Z,14.55
2022-09-23T08:33:55.887Z,14.57
2022-09-23T08:36:42.188Z,14.60
2022-09-23T08:39:28.398Z,14.51
2022-09-23T08:42:28.298Z,14.64
2022-09-23T08:45:25.698Z,14.37
2022-09-23T08:48:15.753Z,14.44
2022-09-23T08:51:06.848Z,14.62
2022-09-23T08:53:52.815Z,14.65
2022-09-23T08:56:38.935Z,14.99
2022-09-23T08:59:29.156Z,15.13
2022-09-23T09:02:19.799Z,15.04
2022-09-23T09:05:09.169Z,15.32
2022-09-23T09:07:57.801Z,15.41
2022-09-23T09:10:46.720Z,15.25
2022-09-23T09:13:34.564Z,15.44
2022-09-23T09:17:02.140Z,15.32
2022-09-23T09:20:04.889Z,15.24
2022-09-23T09:22:57.715Z,15.39
2022-09-23T09:25:50.146Z,15.45
2022-09-23T09:28:59.099Z,15.38
2022-09-23T09:31:52.144Z,15.57
2022-09-23T09:34:45.254Z,15.57
2022-09-23T09:37:44.667Z,15.88
2022-09-23T09:40:31.009Z,15.72
2022-09-23T09:43:23.416Z,15.99
2022-09-23T09:46:40.660Z,16.06
2022-09-23T09:49:40.798Z,16.06
2022-09-23T09:52:29.655Z,16.15
2022-09-23T09:55:25.407Z,16.10
2022-09-23T09:58:16.478Z,15.97
2022-09-23T10:01:02.442Z,15.73
2022-09-23T10:03:49.533Z,15.72
2022-09-23T10:06:36.006Z,15.74
2022-09-23T10:09:22.135Z,15.58
2022-09-23T10:12:18.839Z,15.34
2022-09-23T10:15:05.121Z,15.55
2022-09-23T10:17:51.829Z,15.37
2022-09-23T10:20:38.999Z,15.41
2022-09-23T10:23:27.821Z,15.51
2022-09-23T10:26:15.157Z,15.21
2022-09-23T10:29:03.219Z,15.37
2022-09-23T10:31:52.472Z,15.34
2022-09-23T10:34:43.172Z,15.49
2022-09-23T10:37:49.664Z,15.56
2022-09-23T10:40:56.970Z,15.51
2022-09-23T10:44:31.647Z,15.57
2022-09-23T10:47:56.866Z,15.53
2022-09-23T10:50:49.506Z,15.23
2022-09-23T10:53:57.245Z,15.55
2022-09-23T10:56:53.627Z,15.61
2022-09-23T10:59:48.325Z,15.51
2022-09-23T11:02:34.372Z,15.95
2022-09-23T11:05:30.598Z,15.82
2022-09-23T11:08:27.396Z,16.10
2022-09-23T11:11:23.520Z,16.15
2022-09-23T11:14:16.821Z,16.02
2022-09-23T11:17:14.798Z,16.07
2022-09-23T11:20:23.186Z,15.69
2022-09-23T11:23:23.513Z,16.13
2022-09-23T11:26:33.277Z,16.22
2022-09-23T11:29:42.558Z,16.21
2022-09-23T11:33:05.934Z,16.11
2022-09-23T11:35:57.364Z,16.07
2022-09-23T11:38:46.706Z,16.05
2022-09-23T11:41:35.557Z,15.96
2022-09-23T11:44:47.157Z,16.17
2022-09-23T11:47:42.410Z,15.97
2022-09-23T11:50:34.365Z,15.93
2022-09-23T11:53:23.889Z,15.88
2022-09-23T11:56:35.437Z,15.85
2022-09-23T11:59:40.642Z,16.04
2022-09-23T12:03:05.483Z,16.06
2022-09-23T12:06:05.250Z,15.74
2022-09-23T12:08:57.712Z,15.75
2022-09-23T12:11:58.571Z,15.52
2022-09-23T12:15:02.649Z,15.57
2022-09-23T12:18:13.760Z,15.46
2022-09-23T12:21:46.333Z,15.80
2022-09-23T12:25:38.159Z,15.90
2022-09-23T12:28:45.188Z,15.79
2022-09-23T12:31:33.091Z,15.66
2022-09-23T12:34:47.970Z,15.96
2022-09-23T12:37:38.071Z,15.80
2022-09-23T12:40:32.132Z,15.93
2022-09-23T12:43:20.301Z,15.88
2022-09-23T12:46:20.286Z,15.83
2022-09-23T12:49:20.825Z,15.94
2022-09-23T12:52:12.752Z,15.94
2022-09-23T12:55:29.725Z,15.90
2022-09-23T12:58:43.411Z,15.93
2022-09-23T13:01:36.266Z,15.45
2022-09-23T13:05:01.383Z,15.75
2022-09-23T13:07:48.853Z,15.67
2022-09-23T13:10:43.290Z,15.68
2022-09-23T13:13:40.849Z,15.58
2022-09-23T13:16:39.601Z,15.64
2022-09-23T13:19:28.204Z,15.50
2022-09-23T13:22:14.380Z,15.43
2022-09-23T13:25:01.371Z,15.35
2022-09-23T13:27:52.839Z,15.36
2022-09-23T13:30:48.128Z,15.34
2022-09-23T13:33:39.464Z,15.49
2022-09-23T13:36:25.740Z,15.60
2022-09-23T13:39:16.136Z,15.61
2022-09-23T13:42:04.218Z,15.42
2022-09-23T13:44:52.847Z,15.43
2022-09-23T13:47:43.324Z,15.55
2022-09-23T13:50:34.212Z,15.34
2022-09-23T13:53:27.010Z,15.42
2022-09-23T13:56:14.877Z,15.55
2022-09-23T13:59:26.794Z,15.76
2022-09-23T14:02:20.272Z,15.62
2022-09-23T14:05:12.561Z,15.73
2022-09-23T14:07:58.278Z,15.60
2022-09-23T14:10:47.273Z,15.63
2022-09-23T14:13:40.169Z,15.64
2022-09-23T14:16:26.900Z,15.62
2022-09-23T14:19:18.166Z,15.77
2022-09-23T14:22:03.780Z,15.76
2022-09-23T14:24:50.282Z,15.63
2022-09-23T14:27:37.045Z,15.46
2022-09-23T14:30:23.503Z,15.27
2022-09-23T14:33:11.630Z,15.18
2022-09-23T14:36:09.039Z,15.31
2022-09-23T14:39:10.419Z,15.40
2022-09-23T14:41:57.272Z,15.22
2022-09-23T14:44:43.021Z,15.23
2022-09-23T14:47:30.179Z,15.13
2022-09-23T14:50:47.129Z,15.15
2022-09-23T14:53:41.582Z,14.96
2022-09-23T14:56:27.436Z,15.10
2022-09-23T14:59:33.686Z,15.24
2022-09-23T15:02:33.046Z,15.36
2022-09-23T15:05:23.920Z,15.29
2022-09-23T15:08:10.863Z,15.45
2022-09-23T15:10:58.485Z,15.47
2022-09-23T15:13:47.035Z,15.29
2022-09-23T15:16:32.890Z,15.11
2022-09-23T15:19:20.303Z,15.10
2022-09-23T15:22:07.652Z,15.20
2022-09-23T15:24:54.850Z,15.04
2022-09-23T15:27:40.929Z,15.01
2022-09-23T15:30:26.901Z,15.29
2022-09-23T15:33:15.280Z,15.28
2022-09-23T15:36:01.275Z,15.12
2022-09-23T15:38:47.142Z,15.20
2022-09-23T15:41:33.603Z,15.11
2022-09-23T15:44:21.865Z,15.11
2022-09-23T15:47:13.443Z,15.15
2022-09-23T15:49:59.839Z,15.14
2022-09-23T15:52:45.877Z,15.10
2022-09-23T15:55:32.030Z,14.85
2022-09-23T15:58:21.559Z,14.77
2022-09-23T16:01:12.911Z,15.06
2022-09-23T16:04:01.139Z,15.02
2022-09-23T16:06:48.366Z,14.69
2022-09-23T16:09:33.815Z,14.99
2022-09-23T16:12:19.518Z,14.76
2022-09-23T16:15:11.849Z,14.76
2022-09-23T16:17:57.774Z,14.75
2022-09-23T16:20:45.098Z,14.83
2022-09-23T16:23:34.728Z,14.72
2022-09-23T16:26:26.792Z,14.91
2022-09-23T16:29:12.694Z,14.69
2022-09-23T16:31:58.421Z,14.66
2022-09-23T16:34:45.906Z,14.86
2022-09-23T16:37:31.854Z,14.79
2022-09-23T16:40:22.818Z,14.84
2022-09-23T16:43:08.438Z,14.77
2022-09-23T16:45:54.887Z,14.65
2022-09-23T16:48:41.081Z,14.67
2022-09-23T16:51:30.762Z,14.79
2022-09-23T16:54:33.633Z,14.58
2022-09-23T16:57:24.221Z,14.63
2022-09-23T17:00:33.238Z,14.56
2022-09-23T17:03:41.255Z,14.40
2022-09-23T17:06:27.954Z,14.35
2022-09-23T17:09:14.544Z,14.38
2022-09-23T17:12:08.415Z,14.57
2022-09-23T17:15:03.924Z,14.59
2022-09-23T17:17:49.921Z,14.56
2022-09-23T17:20:36.155Z,14.48
2022-09-23T17:23:21.893Z,14.48
2022-09-23T17:26:12.550Z,14.51
2022-09-23T17:28:59.643Z,14.34
2022-09-23T17:31:46.617Z,14.35
2022-09-23T17:34:33.354Z,14.48
2022-09-23T17:37:19.919Z,14.53
2022-09-23T17:40:06.380Z,14.52
2022-09-23T17:42:55.594Z,14.57
2022-09-23T17:45:41.632Z,14.56
2022-09-23T17:48:27.473Z,14.61
2022-09-23T17:51:13.754Z,14.61
2022-09-23T17:53:59.949Z,14.45
2022-09-23T17:56:45.930Z,14.55
2022-09-23T17:59:31.738Z,14.58
2022-09-23T18:02:28.769Z,14.43
2022-09-23T18:05:15.049Z,14.39
2022-09-23T18:08:05.811Z,14.46
2022-09-23T18:10:52.375Z,14.40
2022-09-23T18:13:38.451Z,14.14
2022-09-23T18:16:26.547Z,14.46
2022-09-23T18:19:14.529Z,14.46
2022-09-23T18:22:01.631Z,14.41
2022-09-23T18:24:47.193Z,14.22
2022-09-23T18:27:36.154Z,14.33
2022-09-23T18:30:21.844Z,14.17
2022-09-23T18:33:08.280Z,14.21
2022-09-23T18:35:53.662Z,14.37
2022-09-23T18:38:40.727Z,14.19
2022-09-23T18:41:27.852Z,14.24
2022-09-23T18:44:14.183Z,14.13
2022-09-23T18:47:00.406Z,14.34
2022-09-23T18:50:04.739Z,14.33
2022-09-23T18:52:50.741Z,14.36
2022-09-23T18:55:37.670Z,14.11
2022-09-23T18:58:23.461Z,14.11
2022-09-23T19:01:10.247Z,14.08
2022-09-23T19:03:57.292Z,14.11
2022-09-23T19:06:43.184Z,14.11
2022-09-23T19:09:29.039Z,13.98
2022-09-23T19:12:15.242Z,14.10
2022-09-23T19:15:00.671Z,14.13
2022-09-23T19:17:47.168Z,14.05
2022-09-23T19:20:32.739Z,13.99
2022-09-23T19:23:19.998Z,14.09
2022-09-23T19:26:11.037Z,14.05
2022-09-23T19:28:58.105Z,14.06
2022-09-23T19:31:44.464Z,14.10
2022-09-23T19:34:30.965Z,13.92
2022-09-23T19:37:16.669Z,14.02
2022-09-23T19:40:02.521Z,13.70
2022-09-23T19:42:48.601Z,13.79
2022-09-23T19:45:36.120Z,13.92
2022-09-23T19:48:22.408Z,13.88
2022-09-23T19:51:08.165Z,13.88
2022-09-23T19:54:05.170Z,13.75
2022-09-23T19:56:51.527Z,13.82
2022-09-23T19:59:40.228Z,13.87
2022-09-23T20:02:26.274Z,13.68
2022-09-23T20:05:13.873Z,13.92
2022-09-23T20:08:04.425Z,13.80
2022-09-23T20:10:50.690Z,13.87
2022-09-23T20:13:37.912Z,13.99
2022-09-23T20:16:23.984Z,13.91
2022-09-23T20:19:10.128Z,13.99
2022-09-23T20:22:14.222Z,13.96
2022-09-23T20:25:00.636Z,13.89
2022-09-23T20:27:51.237Z,13.77
2022-09-23T20:30:39.120Z,13.78
2022-09-23T20:33:24.500Z,13.79
2022-09-23T20:36:13.267Z,13.91
2022-09-23T20:39:00.837Z,14.02
2022-09-23T20:41:50.467Z,14.01
2022-09-23T20:47:47.346Z,13.94
2022-09-23T20:50:33.376Z,13.55
2022-09-23T20:53:20.164Z,13.82
2022-09-23T20:56:06.411Z,13.89
2022-09-23T20:58:54.162Z,13.68
2022-09-23T21:01:41.113Z,13.67
2022-09-23T21:04:27.991Z,13.46
2022-09-23T21:07:13.748Z,13.34
2022-09-23T21:10:05.178Z,13.32
2022-09-23T21:12:50.720Z,13.33
2022-09-23T21:15:36.965Z,13.12
2022-09-23T21:18:24.044Z,13.26
2022-09-23T21:21:11.155Z,13.38
2022-09-23T21:24:11.749Z,13.55
2022-09-23T21:27:03.934Z,13.16
2022-09-23T21:29:49.983Z,13.04
2022-09-23T21:32:36.335Z,12.90
2022-09-23T21:35:21.840Z,13.08
2022-09-23T21:38:07.819Z,12.76
2022-09-23T21:41:00.133Z,12.93
2022-09-23T21:43:46.044Z,12.92
2022-09-23T21:46:33.900Z,13.08
2022-09-23T21:49:20.507Z,13.04
2022-09-23T21:52:07.897Z,13.22
2022-09-23T21:54:53.919Z,13.20
2022-09-23T21:57:39.422Z,13.32
2022-09-23T22:00:26.479Z,13.07
2022-09-23T22:03:12.449Z,12.97
2022-09-23T22:06:08.924Z,13.43
2022-09-23T22:08:59.119Z,13.38
2022-09-23T22:12:04.078Z,13.36
2022-09-23T22:14:51.688Z,13.31
2022-09-23T22:17:37.512Z,13.23
2022-09-23T22:20:23.373Z,12.95
2022-09-23T22:23:09.409Z,12.49
2022-09-23T22:26:02.842Z,12.62
2022-09-23T22:29:08.836Z,12.85
2022-09-23T22:32:13.163Z,12.59
2022-09-23T22:34:59.181Z,12.30
2022-09-23T22:37:48.168Z,12.49
2022-09-23T22:40:38.118Z,12.35
2022-09-23T22:43:24.342Z,12.46
2022-09-23T22:46:10.273Z,12.90
2022-09-23T22:48:56.276Z,13.11
2022-09-23T22:51:43.045Z,13.35
2022-09-23T22:54:34.458Z,13.39
2022-09-23T22:58:31.233Z,13.33
2022-09-23T23:01:18.263Z,13.43
2022-09-23T23:04:05.900Z,13.63
2022-09-23T23:06:52.090Z,13.47
2022-09-23T23:09:37.429Z,13.59
2022-09-23T23:12:24.178Z,13.30
2022-09-23T23:15:12.799Z,13.45
2022-09-23T23:17:59.229Z,13.38
2022-09-23T23:20:45.722Z,13.45
2022-09-23T23:23:31.727Z,13.75
2022-09-23T23:26:22.574Z,13.53
2022-09-23T23:29:11.752Z,13.36
2022-09-23T23:31:57.308Z,13.18
2022-09-23T23:34:43.941Z,13.21
2022-09-23T23:37:30.037Z,12.77
2022-09-23T23:40:16.112Z,12.79
2022-09-23T23:43:04.151Z,13.25
2022-09-23T23:45:51.548Z,13.34
2022-09-23T23:48:37.720Z,13.37
2022-09-23T23:51:26.557Z,13.45
2022-09-23T23:54:12.823Z,13.59
2022-09-23T23:56:58.813Z,13.76
2022-09-23T23:59:44.666Z,13.64
